Time;durP1;ratioP1;P1;durP2;ratioP2;P2;SDS_P1;SDS_P2;PMS_P1;PMS_P2;Temp;Humidity;BMP_temperature;BMP_pressure;BME280_temperature;BME280_humidity;BME280_pressure;Samples;Min_cycle;Max_cycle;Signal;HPM_P1;HPM_P2
2023/01/18 00:01:37;;;;;;;2.83;1.45;;;;;;;;;;5064639;28;20036;-60
2023/01/18 00:04:03;;;;;;;2.27;1.60;;;;;;;;;;5046013;28;20064;-65
2023/01/18 00:06:28;;;;;;;2.30;1.20;;;;;;;;;;5062465;28;20283;-61
2023/01/18 00:08:53;;;;;;;2.28;1.35;;;;;;;;;;5046658;28;20077;-67
2023/01/18 00:11:19;;;;;;;2.10;1.50;;;;;;;;;;5064419;28;20105;-72
2023/01/18 00:13:44;;;;;;;2.05;1.40;;;;;;;;;;5043540;28;20354;-71
2023/01/18 00:16:11;;;;;;;1.95;1.33;;;;;;;;;;5037883;28;20032;-68
2023/01/18 00:18:36;;;;;;;2.28;1.27;;;;;;;;;;5063177;28;20029;-72
2023/01/18 00:21:02;;;;;;;3.17;1.40;;;;;;;;;;5026704;28;20020;-72
2023/01/18 00:23:27;;;;;;;2.13;1.20;;;;;;;;;;5054987;28;20260;-73
2023/01/18 00:25:52;;;;;;;1.88;1.38;;;;;;;;;;5063416;28;20106;-66
2023/01/18 00:28:21;;;;;;;2.20;1.38;;;;;;;;;;5058809;28;20025;-68
2023/01/18 00:30:47;;;;;;;2.13;1.27;;;;;;;;;;5046034;28;20029;-66
2023/01/18 00:33:12;;;;;;;2.20;1.33;;;;;;;;;;5061507;28;20033;-68
2023/01/18 00:35:37;;;;;;;2.13;1.30;;;;;;;;;;5067283;28;20283;-66
2023/01/18 00:38:02;;;;;;;2.13;1.40;;;;;;;;;;5069131;28;20036;-66
2023/01/18 00:40:29;;;;;;;3.47;1.50;;;;;;;;;;5068326;28;20348;-69
2023/01/18 00:45:39;;;;;;;2.72;1.27;;;;;;;;;;5074104;28;20066;-63
2023/01/18 00:48:05;;;;;;;2.88;1.10;;;;;;;;;;5071750;28;20039;-66
2023/01/18 00:50:30;;;;;;;2.22;1.25;;;;;;;;;;5033784;28;20447;-71
2023/01/18 00:52:58;;;;;;;2.63;1.20;;;;;;;;;;5047040;28;20033;-74
2023/01/18 00:55:24;;;;;;;2.22;1.20;;;;;;;;;;5066920;28;20067;-64
2023/01/18 00:57:49;;;;;;;2.47;1.20;;;;;;;;;;5068329;28;20130;-67
2023/01/18 01:00:15;;;;;;;2.58;1.30;;;;;;;;;;5050192;28;20036;-70
2023/01/18 01:02:41;;;;;;;1.92;1.10;;;;;;;;;;5051333;28;20036;-71
2023/01/18 01:07:54;;;;;;;1.92;1.10;;;;;;;;;;5067935;28;20043;-72
2023/01/18 01:10:19;;;;;;;2.90;1.20;;;;;;;;;;5048523;28;20053;-72
2023/01/18 01:26:23;;;;;;;1.70;0.90;;;;;;;;;;5067990;28;20063;-68
2023/01/18 01:28:49;;;;;;;2.77;1.10;;;;;;;;;;5065636;28;20552;-67
2023/01/18 01:31:15;;;;;;;1.95;1.20;;;;;;;;;;5030102;28;20298;-73
2023/01/18 01:33:40;;;;;;;3.17;1.10;;;;;;;;;;5049473;28;20385;-69
2023/01/18 01:36:06;;;;;;;1.88;0.90;;;;;;;;;;5032471;28;20024;-71
2023/01/18 01:38:32;;;;;;;1.73;1.08;;;;;;;;;;5048885;28;20027;-67
2023/01/18 01:40:57;;;;;;;2.25;1.15;;;;;;;;;;5048683;28;20024;-72
2023/01/18 01:43:42;;;;;;;1.55;1.00;;;;;;;;;;5067931;28;20107;-59
2023/01/18 01:46:11;;;;;;;1.65;0.80;;;;;;;;;;5053364;28;20032;-72
2023/01/18 01:48:37;;;;;;;2.70;1.30;;;;;;;;;;5059040;28;20117;-62
2023/01/18 01:51:02;;;;;;;1.90;1.13;;;;;;;;;;5077534;28;20620;-67
2023/01/18 01:53:27;;;;;;;2.42;1.20;;;;;;;;;;5050727;28;20295;-73
2023/01/18 01:55:52;;;;;;;2.10;1.00;;;;;;;;;;5067257;28;20497;-66
2023/01/18 01:58:19;;;;;;;2.22;1.40;;;;;;;;;;5048910;28;20279;-69
2023/01/18 02:00:45;;;;;;;2.75;1.13;;;;;;;;;;5048100;28;20048;-63
2023/01/18 02:03:11;;;;;;;2.03;1.17;;;;;;;;;;5054395;28;20046;-65
2023/01/18 02:05:39;;;;;;;3.20;1.10;;;;;;;;;;5028691;28;20104;-64
2023/01/18 02:08:10;;;;;;;5.20;1.00;;;;;;;;;;5019034;28;20411;-59
2023/01/18 02:10:35;;;;;;;3.05;1.27;;;;;;;;;;5046579;28;20053;-64
2023/01/18 02:13:00;;;;;;;3.17;1.10;;;;;;;;;;5056365;28;20040;-72
2023/01/18 02:15:49;;;;;;;3.07;1.10;;;;;;;;;;5053933;28;20122;-70
2023/01/18 02:18:17;;;;;;;3.40;1.00;;;;;;;;;;5046824;28;20293;-69
2023/01/18 02:20:45;;;;;;;3.13;0.90;;;;;;;;;;5031747;28;20031;-73
2023/01/18 02:23:13;;;;;;;2.13;0.98;;;;;;;;;;5047631;28;20024;-73
2023/01/18 02:25:42;;;;;;;2.53;0.90;;;;;;;;;;5072645;28;20033;-70
2023/01/18 02:28:07;;;;;;;1.90;0.95;;;;;;;;;;5066837;28;20129;-67
2023/01/18 02:30:48;;;;;;;2.42;0.90;;;;;;;;;;5050928;28;20441;-73
2023/01/18 02:33:14;;;;;;;3.53;0.80;;;;;;;;;;5035168;28;20040;-72
2023/01/18 02:35:47;;;;;;;1.98;0.98;;;;;;;;;;5045252;28;20059;-66
2023/01/18 02:38:28;;;;;;;2.50;0.90;;;;;;;;;;5022867;28;20492;-69
2023/01/18 02:40:53;;;;;;;2.35;0.90;;;;;;;;;;5047363;28;20048;-72
2023/01/18 02:48:47;;;;;;;1.58;0.95;;;;;;;;;;5050024;28;20476;-72
2023/01/18 02:51:12;;;;;;;3.07;0.87;;;;;;;;;;5064596;28;20032;-71
2023/01/18 02:53:39;;;;;;;1.60;0.80;;;;;;;;;;5064604;28;20671;-73
2023/01/18 02:56:09;;;;;;;1.45;0.90;;;;;;;;;;5044227;28;20055;-64
2023/01/18 02:58:39;;;;;;;2.20;0.88;;;;;;;;;;5051361;28;20044;-62
2023/01/18 03:01:06;;;;;;;1.60;0.82;;;;;;;;;;5065060;28;20086;-62
2023/01/18 03:03:31;;;;;;;2.72;0.90;;;;;;;;;;5048867;28;20043;-69
2023/01/18 03:05:58;;;;;;;2.27;0.80;;;;;;;;;;5045012;28;20048;-69
2023/01/18 03:08:26;;;;;;;1.63;0.90;;;;;;;;;;5046109;28;20282;-68
2023/01/18 03:11:27;;;;;;;2.80;0.90;;;;;;;;;;5047560;28;20044;-66
2023/01/18 03:13:55;;;;;;;1.50;0.70;;;;;;;;;;5027169;28;20060;-74
2023/01/18 03:16:21;;;;;;;1.92;0.90;;;;;;;;;;5045138;28;20037;-64
2023/01/18 03:19:00;;;;;;;1.40;0.82;;;;;;;;;;5040291;28;20033;-72
2023/01/18 03:21:46;;;;;;;1.90;0.70;;;;;;;;;;5045682;28;20024;-74
2023/01/18 03:24:11;;;;;;;1.63;1.00;;;;;;;;;;5063450;28;20032;-67
2023/01/18 03:26:38;;;;;;;1.70;0.90;;;;;;;;;;5070760;28;20039;-71
2023/01/18 03:34:54;;;;;;;1.30;0.70;;;;;;;;;;5040619;28;20055;-70
2023/01/18 03:37:24;;;;;;;1.63;0.80;;;;;;;;;;5055086;28;20109;-63
2023/01/18 03:39:51;;;;;;;3.58;0.98;;;;;;;;;;5043427;28;20037;-73
2023/01/18 03:42:20;;;;;;;1.73;0.90;;;;;;;;;;5047432;28;20042;-62
2023/01/18 03:44:50;;;;;;;1.63;1.00;;;;;;;;;;5073656;28;20046;-71
2023/01/18 03:47:15;;;;;;;1.45;0.80;;;;;;;;;;5071586;28;20063;-70
2023/01/18 03:49:40;;;;;;;1.50;0.70;;;;;;;;;;5047236;28;20171;-69
2023/01/18 03:52:07;;;;;;;1.50;0.87;;;;;;;;;;5063558;28;20324;-73
2023/01/18 03:54:33;;;;;;;1.60;0.88;;;;;;;;;;5043117;28;20980;-74
2023/01/18 03:57:03;;;;;;;1.30;0.80;;;;;;;;;;5043223;28;20068;-70
2023/01/18 03:59:28;;;;;;;;;;;;;;;;;;5044110;28;20060;-75
2023/01/18 04:01:53;;;;;;;1.77;0.90;;;;;;;;;;5060363;28;20590;-70
2023/01/18 04:04:19;;;;;;;1.40;1.00;;;;;;;;;;5047867;28;20223;-74
2023/01/18 04:06:44;;;;;;;1.80;0.80;;;;;;;;;;5053257;28;20357;-68
2023/01/18 04:09:10;;;;;;;1.60;0.70;;;;;;;;;;5051805;28;20303;-72
2023/01/18 04:11:35;;;;;;;2.03;0.80;;;;;;;;;;5047393;28;20040;-73
2023/01/18 04:14:01;;;;;;;1.70;0.70;;;;;;;;;;5050522;28;20090;-65
2023/01/18 04:16:26;;;;;;;1.43;0.80;;;;;;;;;;5042192;28;20049;-67
2023/01/18 04:18:51;;;;;;;1.87;0.60;;;;;;;;;;5047347;28;20659;-70
2023/01/18 04:21:17;;;;;;;2.13;0.60;;;;;;;;;;5048183;28;20390;-70
2023/01/18 04:23:42;;;;;;;1.30;0.68;;;;;;;;;;5030646;28;20029;-74
2023/01/18 04:26:07;;;;;;;2.23;0.80;;;;;;;;;;5047580;28;20463;-72
2023/01/18 04:28:33;;;;;;;1.13;0.67;;;;;;;;;;5030048;28;20299;-70
2023/01/18 04:30:58;;;;;;;2.05;0.80;;;;;;;;;;5062581;28;20290;-57
2023/01/18 04:33:25;;;;;;;1.40;0.80;;;;;;;;;;5047320;28;20048;-64
2023/01/18 04:35:53;;;;;;;1.58;0.82;;;;;;;;;;5030961;28;20037;-64
2023/01/18 04:38:18;;;;;;;2.70;0.70;;;;;;;;;;5043966;28;20044;-59
2023/01/18 04:40:43;;;;;;;2.85;0.77;;;;;;;;;;5045438;28;20033;-59
2023/01/18 04:43:08;;;;;;;1.85;0.80;;;;;;;;;;5047024;28;20121;-68
2023/01/18 04:45:34;;;;;;;1.90;0.70;;;;;;;;;;5029388;28;20525;-68
2023/01/18 04:47:59;;;;;;;2.30;0.70;;;;;;;;;;5020394;28;20037;-68
2023/01/18 04:50:24;;;;;;;1.20;0.60;;;;;;;;;;5043816;28;20315;-65
2023/01/18 04:52:49;;;;;;;1.40;0.50;;;;;;;;;;5022323;28;20296;-64
2023/01/18 04:55:15;;;;;;;2.13;0.60;;;;;;;;;;5014018;28;20050;-65
2023/01/18 04:57:44;;;;;;;1.35;0.60;;;;;;;;;;5020125;28;20284;-64
2023/01/18 05:00:13;;;;;;;2.05;0.70;;;;;;;;;;5028418;28;20053;-69
2023/01/18 05:02:39;;;;;;;2.20;0.60;;;;;;;;;;5037313;28;20037;-71
2023/01/18 05:05:04;;;;;;;1.30;0.70;;;;;;;;;;5045891;28;20476;-58
2023/01/18 05:07:32;;;;;;;1.35;0.50;;;;;;;;;;5051343;28;20284;-64
2023/01/18 05:09:58;;;;;;;1.48;0.70;;;;;;;;;;5025002;28;20053;-66
2023/01/18 05:12:24;;;;;;;2.17;0.40;;;;;;;;;;5025755;28;20614;-61
2023/01/18 05:14:49;;;;;;;1.80;0.63;;;;;;;;;;5053985;28;20033;-65
2023/01/18 05:17:14;;;;;;;2.73;0.97;;;;;;;;;;5045171;28;20283;-69
2023/01/18 05:19:40;;;;;;;1.50;0.73;;;;;;;;;;5033414;28;20345;-59
2023/01/18 05:22:05;;;;;;;1.70;0.60;;;;;;;;;;5029934;28;20284;-68
2023/01/18 05:24:31;;;;;;;1.77;0.63;;;;;;;;;;5041617;28;20072;-64
2023/01/18 05:26:56;;;;;;;1.67;0.77;;;;;;;;;;5060486;28;20034;-70
2023/01/18 05:29:22;;;;;;;2.20;0.50;;;;;;;;;;5044308;28;20061;-71
2023/01/18 05:31:47;;;;;;;2.53;0.70;;;;;;;;;;5039885;28;20543;-72
2023/01/18 05:34:13;;;;;;;2.27;0.63;;;;;;;;;;5027268;28;20221;-72
2023/01/18 05:36:38;;;;;;;1.92;0.60;;;;;;;;;;5039136;28;20307;-68
2023/01/18 05:39:03;;;;;;;1.95;0.60;;;;;;;;;;5040240;28;20036;-65
2023/01/18 05:41:28;;;;;;;1.20;0.30;;;;;;;;;;5016137;28;20124;-70
2023/01/18 05:43:54;;;;;;;1.38;0.75;;;;;;;;;;5049433;28;20849;-62
2023/01/18 05:46:19;;;;;;;2.23;0.43;;;;;;;;;;5043965;28;20034;-63
2023/01/18 05:48:44;;;;;;;1.13;0.50;;;;;;;;;;5038134;28;20347;-72
2023/01/18 05:51:10;;;;;;;1.87;0.80;;;;;;;;;;5038146;28;20481;-70
2023/01/18 05:53:35;;;;;;;3.25;0.60;;;;;;;;;;5044267;28;20083;-66
2023/01/18 05:56:01;;;;;;;1.33;0.50;;;;;;;;;;5037229;28;20503;-69
2023/01/18 05:58:26;;;;;;;2.72;0.55;;;;;;;;;;5048506;28;20055;-67
2023/01/18 06:00:52;;;;;;;2.03;0.60;;;;;;;;;;5041059;28;20437;-67
2023/01/18 06:03:17;;;;;;;2.35;0.50;;;;;;;;;;5052008;28;20032;-58
2023/01/18 06:05:42;;;;;;;1.50;0.50;;;;;;;;;;5054059;28;20044;-66
2023/01/18 06:08:07;;;;;;;1.45;0.43;;;;;;;;;;5059194;28;20116;-66
2023/01/18 06:10:33;;;;;;;1.10;0.40;;;;;;;;;;5049417;28;20080;-64
2023/01/18 06:12:58;;;;;;;1.53;0.63;;;;;;;;;;5054358;28;20754;-66
2023/01/18 06:15:23;;;;;;;2.10;0.47;;;;;;;;;;5061841;28;20290;-66
2023/01/18 06:17:48;;;;;;;1.30;0.60;;;;;;;;;;5038225;28;20283;-69
2023/01/18 06:20:14;;;;;;;1.00;0.40;;;;;;;;;;5046939;28;20270;-73
2023/01/18 06:22:39;;;;;;;1.90;0.50;;;;;;;;;;5043499;28;20832;-70
2023/01/18 06:25:05;;;;;;;0.93;0.30;;;;;;;;;;5057751;28;20504;-66
2023/01/18 06:27:30;;;;;;;3.05;0.55;;;;;;;;;;5059922;28;20083;-67
2023/01/18 06:29:56;;;;;;;0.95;0.40;;;;;;;;;;5062298;28;20044;-60
2023/01/18 06:32:21;;;;;;;1.60;0.40;;;;;;;;;;5041478;28;20024;-60
2023/01/18 06:34:46;;;;;;;1.52;0.40;;;;;;;;;;5054061;28;20037;-64
2023/01/18 06:37:12;;;;;;;1.42;0.60;;;;;;;;;;5038165;28;20120;-56
2023/01/18 06:39:38;;;;;;;3.03;0.60;;;;;;;;;;5055248;28;20495;-62
2023/01/18 06:42:04;;;;;;;3.45;0.75;;;;;;;;;;5059433;28;20036;-69
2023/01/18 06:44:29;;;;;;;2.70;0.50;;;;;;;;;;5057535;28;20040;-67
2023/01/18 06:46:54;;;;;;;3.33;0.70;;;;;;;;;;5058516;28;20041;-67
2023/01/18 06:49:19;;;;;;;1.77;0.50;;;;;;;;;;5055631;28;20360;-66
2023/01/18 06:51:45;;;;;;;1.33;0.43;;;;;;;;;;5052531;28;20053;-68
2023/01/18 06:54:10;;;;;;;1.27;0.50;;;;;;;;;;5062005;28;20063;-61
2023/01/18 06:56:35;;;;;;;1.25;0.50;;;;;;;;;;5049538;28;20856;-65
2023/01/18 06:59:01;;;;;;;0.85;0.40;;;;;;;;;;5056044;28;20127;-70
2023/01/18 07:01:26;;;;;;;0.90;0.30;;;;;;;;;;5057639;28;20481;-60
2023/01/18 07:03:51;;;;;;;1.05;0.32;;;;;;;;;;5060483;28;20802;-66
2023/01/18 07:06:17;;;;;;;1.65;0.50;;;;;;;;;;5055933;28;20060;-63
2023/01/18 07:08:42;;;;;;;0.73;0.40;;;;;;;;;;5047791;28;20889;-58
2023/01/18 07:11:08;;;;;;;2.50;0.57;;;;;;;;;;5061992;28;20055;-69
2023/01/18 07:13:33;;;;;;;26.13;2.45;;;;;;;;;;5057245;28;20298;-61
2023/01/18 07:16:00;;;;;;;5.78;1.00;;;;;;;;;;5043639;28;20120;-63
2023/01/18 07:18:26;;;;;;;6.32;0.70;;;;;;;;;;5044028;28;20054;-74
2023/01/18 07:20:55;;;;;;;3.13;0.60;;;;;;;;;;5062847;28;20028;-66
2023/01/18 07:23:20;;;;;;;11.13;0.65;;;;;;;;;;5046460;28;20045;-60
2023/01/18 07:25:45;;;;;;;4.45;0.63;;;;;;;;;;5056384;28;20761;-68
2023/01/18 07:28:11;;;;;;;3.30;0.67;;;;;;;;;;5047946;28;20501;-64
2023/01/18 07:30:37;;;;;;;3.78;0.57;;;;;;;;;;5032993;28;20311;-66
2023/01/18 07:33:02;;;;;;;3.60;0.70;;;;;;;;;;5027019;28;20617;-59
2023/01/18 07:35:27;;;;;;;4.40;0.65;;;;;;;;;;5052018;28;20036;-72
2023/01/18 07:37:53;;;;;;;4.50;0.70;;;;;;;;;;5042532;28;20033;-75
2023/01/18 07:40:20;;;;;;;5.85;0.50;;;;;;;;;;5025579;28;20788;-65
2023/01/18 07:42:45;;;;;;;4.22;0.70;;;;;;;;;;5029524;28;20040;-57
2023/01/18 07:45:12;;;;;;;4.25;0.60;;;;;;;;;;5066345;28;20142;-63
2023/01/18 07:47:38;;;;;;;3.10;0.50;;;;;;;;;;5057718;28;20052;-68
2023/01/18 07:50:03;;;;;;;6.22;0.70;;;;;;;;;;5054419;28;20052;-60
2023/01/18 07:52:30;;;;;;;3.20;0.60;;;;;;;;;;5046960;28;20061;-62
2023/01/18 07:54:55;;;;;;;2.55;0.70;;;;;;;;;;5053359;28;20130;-63
2023/01/18 07:57:20;;;;;;;3.20;1.07;;;;;;;;;;5050547;28;20489;-65
2023/01/18 07:59:46;;;;;;;4.00;0.70;;;;;;;;;;5047057;28;20063;-68
2023/01/18 08:02:13;;;;;;;2.22;0.70;;;;;;;;;;5026675;28;20148;-71
2023/01/18 08:04:39;;;;;;;3.42;0.47;;;;;;;;;;5043873;28;20622;-60
2023/01/18 08:07:04;;;;;;;2.65;0.50;;;;;;;;;;5044668;28;20477;-66
2023/01/18 08:09:32;;;;;;;3.28;0.70;;;;;;;;;;5046985;28;20037;-69
2023/01/18 08:11:57;;;;;;;3.33;0.93;;;;;;;;;;5050535;28;20069;-69
2023/01/18 08:14:23;;;;;;;2.53;0.60;;;;;;;;;;5053024;28;20044;-64
2023/01/18 08:16:48;;;;;;;1.80;0.60;;;;;;;;;;5042092;28;20040;-58
2023/01/18 08:19:15;;;;;;;2.67;0.60;;;;;;;;;;5045643;28;20037;-59
2023/01/18 08:21:40;;;;;;;4.25;0.70;;;;;;;;;;5042464;28;20043;-67
2023/01/18 08:24:05;;;;;;;4.77;0.60;;;;;;;;;;5041860;28;20037;-68
2023/01/18 08:26:33;;;;;;;2.80;0.63;;;;;;;;;;5045528;28;20295;-58
2023/01/18 08:28:58;;;;;;;2.25;0.70;;;;;;;;;;5050764;28;20064;-58
2023/01/18 08:31:23;;;;;;;1.10;0.40;;;;;;;;;;5033762;28;20036;-61
2023/01/18 08:33:49;;;;;;;2.55;0.43;;;;;;;;;;5045831;28;20029;-63
2023/01/18 08:36:15;;;;;;;2.20;0.60;;;;;;;;;;5044483;28;20064;-58
2023/01/18 08:38:41;;;;;;;2.50;0.57;;;;;;;;;;5067747;28;20049;-62
2023/01/18 08:41:07;;;;;;;3.00;0.67;;;;;;;;;;5046594;28;20039;-62
2023/01/18 08:43:32;;;;;;;2.92;0.65;;;;;;;;;;5043609;28;20806;-64
2023/01/18 08:45:58;;;;;;;2.10;0.40;;;;;;;;;;5045873;28;20029;-61
2023/01/18 08:48:23;;;;;;;1.80;0.47;;;;;;;;;;5043190;28;20786;-58
2023/01/18 08:50:48;;;;;;;2.55;0.60;;;;;;;;;;5051248;28;20036;-68
2023/01/18 08:53:13;;;;;;;2.80;0.80;;;;;;;;;;5049888;28;20073;-69
2023/01/18 08:55:39;;;;;;;2.90;0.57;;;;;;;;;;5047816;28;20574;-59
2023/01/18 08:58:04;;;;;;;3.80;0.73;;;;;;;;;;5049398;28;20271;-69
2023/01/18 09:00:29;;;;;;;2.20;0.43;;;;;;;;;;5051141;28;20101;-73
2023/01/18 09:02:55;;;;;;;2.33;0.52;;;;;;;;;;5060998;28;20789;-68
2023/01/18 09:05:20;;;;;;;1.10;0.47;;;;;;;;;;5051597;28;20366;-68
2023/01/18 09:07:46;;;;;;;2.13;0.57;;;;;;;;;;5044689;28;20095;-58
2023/01/18 09:10:11;;;;;;;2.25;0.57;;;;;;;;;;5045330;28;20501;-68
2023/01/18 09:12:37;;;;;;;1.27;0.32;;;;;;;;;;5045630;28;20078;-70
2023/01/18 09:15:02;;;;;;;1.67;0.60;;;;;;;;;;5048500;28;20472;-60
2023/01/18 09:17:27;;;;;;;2.33;0.57;;;;;;;;;;5047602;28;20374;-65
2023/01/18 09:19:53;;;;;;;1.80;0.50;;;;;;;;;;5047910;28;20040;-69
2023/01/18 09:22:18;;;;;;;3.20;0.47;;;;;;;;;;5061712;28;20829;-65
2023/01/18 09:24:44;;;;;;;1.92;0.50;;;;;;;;;;5040531;28;20045;-64
2023/01/18 09:27:09;;;;;;;2.58;0.60;;;;;;;;;;5049751;28;20031;-63
2023/01/18 09:29:34;;;;;;;2.13;0.52;;;;;;;;;;5044212;28;20020;-69
2023/01/18 09:32:00;;;;;;;3.30;0.90;;;;;;;;;;5048690;28;20111;-61
2023/01/18 09:34:25;;;;;;;3.70;0.70;;;;;;;;;;5048310;28;20356;-63
2023/01/18 09:36:50;;;;;;;2.10;0.60;;;;;;;;;;5061151;28;20388;-61
2023/01/18 09:39:16;;;;;;;1.40;0.47;;;;;;;;;;5044325;28;20279;-61
2023/01/18 09:41:43;;;;;;;3.55;0.60;;;;;;;;;;5047318;28;20108;-67
2023/01/18 09:44:19;;;;;;;5.00;0.73;;;;;;;;;;5051555;28;20101;-61
2023/01/18 09:46:44;;;;;;;5.38;0.50;;;;;;;;;;5065946;28;20177;-73
2023/01/18 09:49:14;;;;;;;1.63;0.50;;;;;;;;;;5066544;28;20556;-69
2023/01/18 09:51:55;;;;;;;2.97;0.57;;;;;;;;;;5048934;28;20281;-70
2023/01/18 09:54:32;;;;;;;3.15;0.70;;;;;;;;;;5065182;28;20071;-65
2023/01/18 09:57:00;;;;;;;3.05;0.90;;;;;;;;;;5065587;28;20056;-68
2023/01/18 09:59:25;;;;;;;1.85;0.55;;;;;;;;;;5046791;28;20111;-61
2023/01/18 10:01:50;;;;;;;4.23;0.70;;;;;;;;;;5055451;28;20683;-60
2023/01/18 10:04:16;;;;;;;6.50;0.80;;;;;;;;;;5042128;28;20032;-70
2023/01/18 10:06:54;;;;;;;3.20;0.57;;;;;;;;;;5053294;28;20183;-65
2023/01/18 10:09:21;;;;;;;5.15;0.85;;;;;;;;;;5048583;28;20388;-65
2023/01/18 10:12:07;;;;;;;5.72;0.70;;;;;;;;;;5041867;28;20087;-65
2023/01/18 10:14:51;;;;;;;5.60;0.60;;;;;;;;;;5050370;28;20033;-68
2023/01/18 10:17:16;;;;;;;4.07;1.17;;;;;;;;;;5056729;28;20040;-62
2023/01/18 10:19:42;;;;;;;4.70;0.50;;;;;;;;;;5044205;28;20040;-64
2023/01/18 10:22:11;;;;;;;4.33;0.97;;;;;;;;;;5054166;28;20438;-55
2023/01/18 10:24:41;;;;;;;2.40;0.63;;;;;;;;;;5052189;28;20718;-74
2023/01/18 10:27:19;;;;;;;4.82;0.65;;;;;;;;;;5047934;28;20047;-59
2023/01/18 10:29:44;;;;;;;2.95;0.60;;;;;;;;;;5057445;28;20043;-72
2023/01/18 10:32:10;;;;;;;2.43;0.53;;;;;;;;;;5047191;28;20029;-72
2023/01/18 10:34:38;;;;;;;5.13;0.95;;;;;;;;;;5044187;28;20048;-62
2023/01/18 10:37:13;;;;;;;3.97;0.70;;;;;;;;;;5052130;28;20039;-62
2023/01/18 10:39:46;;;;;;;3.05;0.60;;;;;;;;;;5045958;28;20044;-67
2023/01/18 10:42:29;;;;;;;2.58;0.70;;;;;;;;;;5054960;28;20025;-63
2023/01/18 10:44:56;;;;;;;2.53;0.60;;;;;;;;;;5057601;28;20082;-64
2023/01/18 10:47:21;;;;;;;4.47;0.50;;;;;;;;;;5051121;28;20514;-65
2023/01/18 10:49:47;;;;;;;3.17;0.85;;;;;;;;;;5048974;28;20551;-67
2023/01/18 10:52:30;;;;;;;2.50;0.55;;;;;;;;;;5050061;28;20612;-73
2023/01/18 10:55:06;;;;;;;5.03;0.95;;;;;;;;;;5047463;28;20056;-67
2023/01/18 10:57:31;;;;;;;3.17;0.77;;;;;;;;;;5047901;28;20501;-65
2023/01/18 10:59:57;;;;;;;2.83;0.60;;;;;;;;;;5047551;28;20039;-74
2023/01/18 11:02:29;;;;;;;2.72;0.60;;;;;;;;;;5048710;28;20037;-71
2023/01/18 11:04:59;;;;;;;2.63;0.80;;;;;;;;;;5020331;28;20047;-70
2023/01/18 11:07:27;;;;;;;3.58;0.70;;;;;;;;;;5051277;28;20382;-72
2023/01/18 11:09:58;;;;;;;2.67;0.75;;;;;;;;;;5021549;28;20036;-65
2023/01/18 11:12:33;;;;;;;3.08;0.82;;;;;;;;;;5051459;28;20159;-68
2023/01/18 11:15:14;;;;;;;2.33;0.63;;;;;;;;;;5044676;28;20492;-72
2023/01/18 11:17:43;;;;;;;4.22;0.70;;;;;;;;;;5045621;28;20428;-73
2023/01/18 11:20:17;;;;;;;5.13;0.60;;;;;;;;;;5049237;28;20037;-74
2023/01/18 11:22:57;;;;;;;2.22;0.50;;;;;;;;;;5060001;28;20492;-69
2023/01/18 11:25:22;;;;;;;3.03;0.68;;;;;;;;;;5048662;28;20043;-71
2023/01/18 11:27:47;;;;;;;2.23;0.73;;;;;;;;;;5045396;28;20111;-73
2023/01/18 11:30:19;;;;;;;3.28;0.60;;;;;;;;;;5040833;28;20846;-75
2023/01/18 11:32:45;;;;;;;1.88;0.60;;;;;;;;;;5055889;28;20044;-63
2023/01/18 11:35:10;;;;;;;2.80;0.73;;;;;;;;;;5065663;28;20298;-66
2023/01/18 11:37:36;;;;;;;2.23;0.87;;;;;;;;;;5044750;28;20307;-65
2023/01/18 11:40:16;;;;;;;2.97;0.60;;;;;;;;;;5028710;28;20646;-62
2023/01/18 11:42:41;;;;;;;2.97;0.63;;;;;;;;;;5030509;28;20139;-69
2023/01/18 11:45:24;;;;;;;2.60;0.77;;;;;;;;;;5060492;28;20548;-72
2023/01/18 11:47:53;;;;;;;3.28;0.50;;;;;;;;;;5055196;28;20037;-65
2023/01/18 11:50:21;;;;;;;2.03;0.50;;;;;;;;;;5043483;28;20072;-73
2023/01/18 11:52:51;;;;;;;3.17;0.68;;;;;;;;;;5038909;28;20063;-64
2023/01/18 11:55:16;;;;;;;;;;;;;;;;;;5058145;28;20508;-68
2023/01/18 11:57:41;;;;;;;2.05;0.80;;;;;;;;;;5046813;28;20359;-63
2023/01/18 12:00:11;;;;;;;2.30;0.50;;;;;;;;;;5062535;28;20119;-72
2023/01/18 12:02:55;;;;;;;2.28;0.55;;;;;;;;;;5048560;28;20029;-67
2023/01/18 12:05:24;;;;;;;3.55;0.77;;;;;;;;;;5031564;28;20105;-60
2023/01/18 12:07:58;;;;;;;2.63;0.70;;;;;;;;;;5047168;28;20025;-67
2023/01/18 12:10:24;;;;;;;1.85;0.40;;;;;;;;;;5055515;28;20116;-67
2023/01/18 12:12:52;;;;;;;3.60;1.50;;;;;;;;;;5029953;28;20831;-64
2023/01/18 12:15:37;;;;;;;5.43;3.10;;;;;;;;;;5050849;28;20124;-69
2023/01/18 12:18:21;;;;;;;9.80;6.30;;;;;;;;;;5041408;28;20028;-63
2023/01/18 12:20:53;;;;;;;20.45;13.57;;;;;;;;;;5040914;28;20037;-64
2023/01/18 12:23:37;;;;;;;25.83;16.83;;;;;;;;;;5052831;28;20517;-64
2023/01/18 12:26:05;;;;;;;37.08;23.95;;;;;;;;;;5046666;28;20040;-63
2023/01/18 12:28:46;;;;;;;40.65;25.15;;;;;;;;;;5044322;28;20028;-64
2023/01/18 12:31:11;;;;;;;34.22;22.00;;;;;;;;;;5050661;28;20402;-65
2023/01/18 12:33:36;;;;;;;33.70;19.63;;;;;;;;;;5066555;28;20099;-67
2023/01/18 12:36:06;;;;;;;29.67;17.30;;;;;;;;;;5060556;28;20800;-68
2023/01/18 12:38:32;;;;;;;24.88;14.48;;;;;;;;;;5045204;28;20284;-73
2023/01/18 12:41:00;;;;;;;21.15;12.05;;;;;;;;;;5046019;28;20047;-62
2023/01/18 12:43:31;;;;;;;20.60;11.93;;;;;;;;;;5048862;28;20122;-66
2023/01/18 12:46:07;;;;;;;17.48;9.02;;;;;;;;;;5060073;28;20041;-70
2023/01/18 12:48:41;;;;;;;16.02;7.65;;;;;;;;;;5039054;28;20044;-66
2023/01/18 12:51:08;;;;;;;15.77;6.85;;;;;;;;;;5068414;28;20143;-60
2023/01/18 12:53:44;;;;;;;13.15;6.13;;;;;;;;;;5057819;28;20099;-66
2023/01/18 12:56:18;;;;;;;10.98;3.85;;;;;;;;;;5074020;28;20036;-58
2023/01/18 12:58:45;;;;;;;12.57;3.50;;;;;;;;;;5063575;28;20049;-67
2023/01/18 13:01:11;;;;;;;8.77;3.70;;;;;;;;;;5029553;28;20152;-64
2023/01/18 13:03:38;;;;;;;8.93;2.95;;;;;;;;;;5042882;28;20036;-63
2023/01/18 13:06:03;;;;;;;9.55;2.80;;;;;;;;;;5018504;28;20040;-59
2023/01/18 13:08:33;;;;;;;11.00;2.60;;;;;;;;;;5058627;28;20515;-62
2023/01/18 13:11:04;;;;;;;7.53;2.65;;;;;;;;;;5054262;28;20071;-63
2023/01/18 13:13:29;;;;;;;7.28;2.75;;;;;;;;;;5054132;28;20029;-67
2023/01/18 13:16:20;;;;;;;9.68;2.65;;;;;;;;;;5039897;28;20044;-62
2023/01/18 13:18:46;;;;;;;7.05;2.20;;;;;;;;;;5025747;28;20079;-58
2023/01/18 13:21:19;;;;;;;9.10;2.67;;;;;;;;;;5058760;28;20516;-61
2023/01/18 13:23:58;;;;;;;7.13;2.13;;;;;;;;;;5053004;28;20068;-68
2023/01/18 13:26:25;;;;;;;8.93;2.03;;;;;;;;;;5048077;28;20080;-63
2023/01/18 13:29:09;;;;;;;9.23;1.98;;;;;;;;;;5045989;28;20040;-62
2023/01/18 13:31:34;;;;;;;7.40;1.73;;;;;;;;;;5053736;28;20056;-61
2023/01/18 13:33:59;;;;;;;13.68;2.30;;;;;;;;;;5050657;28;20032;-58
2023/01/18 13:36:25;;;;;;;8.25;1.55;;;;;;;;;;5053827;28;20048;-69
2023/01/18 13:38:55;;;;;;;8.23;1.40;;;;;;;;;;5049217;28;20773;-67
2023/01/18 13:41:24;;;;;;;10.63;1.77;;;;;;;;;;5048110;28;20344;-64
2023/01/18 13:43:50;;;;;;;6.27;1.73;;;;;;;;;;5062600;28;20107;-65
2023/01/18 13:46:16;;;;;;;8.27;1.83;;;;;;;;;;5059266;28;20131;-61
2023/01/18 13:48:45;;;;;;;11.77;2.00;;;;;;;;;;5064725;28;20267;-71
2023/01/18 13:51:29;;;;;;;10.30;1.70;;;;;;;;;;5051668;28;20016;-66
2023/01/18 13:53:55;;;;;;;11.65;2.10;;;;;;;;;;5062502;28;20040;-59
2023/01/18 13:56:29;;;;;;;13.03;2.07;;;;;;;;;;5051010;28;20492;-66
2023/01/18 13:58:58;;;;;;;11.90;1.58;;;;;;;;;;5053154;28;20736;-62
2023/01/18 14:01:25;;;;;;;11.25;1.92;;;;;;;;;;5040968;28;20505;-58
2023/01/18 14:03:50;;;;;;;7.72;1.55;;;;;;;;;;5042744;28;20041;-63
2023/01/18 14:06:26;;;;;;;11.57;1.67;;;;;;;;;;5042102;28;20041;-67
2023/01/18 14:08:56;;;;;;;6.75;1.67;;;;;;;;;;5045405;28;20135;-64
2023/01/18 14:11:25;;;;;;;8.95;1.92;;;;;;;;;;5045870;28;20123;-58
2023/01/18 14:13:54;;;;;;;8.02;1.55;;;;;;;;;;5035756;28;21319;-70
2023/01/18 14:16:26;;;;;;;13.57;1.88;;;;;;;;;;5049540;28;20357;-61
2023/01/18 14:18:52;;;;;;;9.95;1.65;;;;;;;;;;5040064;28;20475;-68
2023/01/18 14:21:18;;;;;;;9.32;1.38;;;;;;;;;;5042560;28;20066;-69
2023/01/18 14:24:00;;;;;;;11.40;1.67;;;;;;;;;;5056636;28;20044;-71
2023/01/18 14:26:26;;;;;;;11.65;1.70;;;;;;;;;;5065558;28;20071;-58
2023/01/18 14:28:53;;;;;;;13.93;1.65;;;;;;;;;;5062596;28;20044;-70
2023/01/18 14:31:37;;;;;;;12.07;1.90;;;;;;;;;;5056716;28;20064;-59
2023/01/18 14:34:21;;;;;;;11.88;1.45;;;;;;;;;;5060058;28;20139;-65
2023/01/18 14:36:46;;;;;;;9.85;1.42;;;;;;;;;;5065573;28;20036;-61
2023/01/18 14:39:12;;;;;;;14.60;1.70;;;;;;;;;;5058874;28;20048;-63
2023/01/18 14:41:42;;;;;;;8.68;1.50;;;;;;;;;;5046090;28;20038;-66
2023/01/18 14:44:23;;;;;;;13.00;1.73;;;;;;;;;;5054027;28;20028;-73
2023/01/18 14:46:51;;;;;;;11.30;1.30;;;;;;;;;;5059981;28;20661;-76
2023/01/18 14:49:20;;;;;;;8.00;1.70;;;;;;;;;;5039558;28;20031;-71
2023/01/18 14:51:49;;;;;;;10.82;1.85;;;;;;;;;;5068310;28;20440;-73
2023/01/18 14:54:15;;;;;;;7.53;1.50;;;;;;;;;;5042575;28;20029;-74
2023/01/18 14:56:41;;;;;;;7.97;1.45;;;;;;;;;;5042963;28;20366;-73
2023/01/18 14:59:20;;;;;;;7.88;1.40;;;;;;;;;;5048239;28;20035;-66
2023/01/18 15:01:54;;;;;;;7.32;1.20;;;;;;;;;;5064465;28;20029;-70
2023/01/18 15:04:22;;;;;;;5.90;1.30;;;;;;;;;;5065078;28;20047;-72
2023/01/18 15:06:49;;;;;;;10.60;1.80;;;;;;;;;;5060669;28;20094;-70
2023/01/18 15:09:14;;;;;;;8.40;1.40;;;;;;;;;;5044853;28;20060;-59
2023/01/18 15:11:40;;;;;;;6.55;1.15;;;;;;;;;;5063057;28;20459;-62
2023/01/18 15:14:10;;;;;;;6.70;1.40;;;;;;;;;;5046238;28;20090;-74
2023/01/18 15:16:35;;;;;;;6.57;1.23;;;;;;;;;;5032740;28;20040;-72